sensor_id;sensor_type;location;lat;lon;timestamp;temperature;humidity
67249;SHT31;54162;54.300;18.592;2022-07-29T00:01:06;12.83;94.69
67249;SHT31;54162;54.300;18.592;2022-07-29T00:03:32;12.82;94.84
67249;SHT31;54162;54.300;18.592;2022-07-29T00:05:57;12.79;94.91
67249;SHT31;54162;54.300;18.592;2022-07-29T00:08:23;12.79;94.97
67249;SHT31;54162;54.300;18.592;2022-07-29T00:10:48;12.72;95.11
67249;SHT31;54162;54.300;18.592;2022-07-29T00:13:14;12.69;95.35
67249;SHT31;54162;54.300;18.592;2022-07-29T00:15:40;12.66;95.29
67249;SHT31;54162;54.300;18.592;2022-07-29T00:18:05;12.69;95.30
67249;SHT31;54162;54.300;18.592;2022-07-29T00:20:31;12.64;95.31
67249;SHT31;54162;54.300;18.592;2022-07-29T00:22:57;12.58;95.45
67249;SHT31;54162;54.300;18.592;2022-07-29T00:25:22;12.59;95.52
67249;SHT31;54162;54.300;18.592;2022-07-29T00:27:48;12.61;95.46
67249;SHT31;54162;54.300;18.592;2022-07-29T00:30:13;12.58;95.55
67249;SHT31;54162;54.300;18.592;2022-07-29T00:32:39;12.59;95.53
67249;SHT31;54162;54.300;18.592;2022-07-29T00:35:05;12.62;95.49
67249;SHT31;54162;54.300;18.592;2022-07-29T00:37:50;12.62;95.50
67249;SHT31;54162;54.300;18.592;2022-07-29T00:40:15;12.59;95.55
67249;SHT31;54162;54.300;18.592;2022-07-29T00:42:45;12.52;95.66
67249;SHT31;54162;54.300;18.592;2022-07-29T00:45:11;12.51;95.75
67249;SHT31;54162;54.300;18.592;2022-07-29T00:47:37;12.48;95.75
67249;SHT31;54162;54.300;18.592;2022-07-29T00:50:06;12.51;95.83
67249;SHT31;54162;54.300;18.592;2022-07-29T00:52:33;12.49;95.81
67249;SHT31;54162;54.300;18.592;2022-07-29T00:54:59;12.54;96.00
67249;SHT31;54162;54.300;18.592;2022-07-29T00:57:24;12.59;95.88
67249;SHT31;54162;54.300;18.592;2022-07-29T00:59:50;12.54;95.96
67249;SHT31;54162;54.300;18.592;2022-07-29T01:02:16;12.51;95.97
67249;SHT31;54162;54.300;18.592;2022-07-29T01:04:41;12.52;95.91
67249;SHT31;54162;54.300;18.592;2022-07-29T01:07:07;12.55;95.99
67249;SHT31;54162;54.300;18.592;2022-07-29T01:09:34;12.59;96.08
67249;SHT31;54162;54.300;18.592;2022-07-29T01:12:01;12.58;96.11
67249;SHT31;54162;54.300;18.592;2022-07-29T01:14:27;12.61;96.16
67249;SHT31;54162;54.300;18.592;2022-07-29T01:17:32;12.55;96.44
67249;SHT31;54162;54.300;18.592;2022-07-29T01:25:03;12.55;96.44
67249;SHT31;54162;54.300;18.592;2022-07-29T01:28:06;12.54;96.44
67249;SHT31;54162;54.300;18.592;2022-07-29T01:30:35;12.52;96.66
67249;SHT31;54162;54.300;18.592;2022-07-29T01:33:09;12.51;96.66
67249;SHT31;54162;54.300;18.592;2022-07-29T01:35:38;12.49;96.73
67249;SHT31;54162;54.300;18.592;2022-07-29T01:38:12;12.51;96.76
67249;SHT31;54162;54.300;18.592;2022-07-29T01:40:59;12.52;96.67
67249;SHT31;54162;54.300;18.592;2022-07-29T01:43:39;12.51;96.83
67249;SHT31;54162;54.300;18.592;2022-07-29T01:46:10;12.51;96.79
67249;SHT31;54162;54.300;18.592;2022-07-29T01:48:41;12.51;96.77
67249;SHT31;54162;54.300;18.592;2022-07-29T01:51:25;12.45;96.89
67249;SHT31;54162;54.300;18.592;2022-07-29T01:54:08;12.45;96.85
67249;SHT31;54162;54.300;18.592;2022-07-29T01:56:35;12.41;96.84
67249;SHT31;54162;54.300;18.592;2022-07-29T01:59:03;12.37;96.91
67249;SHT31;54162;54.300;18.592;2022-07-29T02:01:31;12.38;97.01
67249;SHT31;54162;54.300;18.592;2022-07-29T02:03:59;12.41;96.96
67249;SHT31;54162;54.300;18.592;2022-07-29T02:06:27;12.52;96.67
67249;SHT31;54162;54.300;18.592;2022-07-29T02:08:53;12.40;96.65
67249;SHT31;54162;54.300;18.592;2022-07-29T02:11:20;12.35;96.76
67249;SHT31;54162;54.300;18.592;2022-07-29T02:13:47;12.37;96.96
67249;SHT31;54162;54.300;18.592;2022-07-29T02:16:14;12.42;96.84
67249;SHT31;54162;54.300;18.592;2022-07-29T02:18:42;12.49;97.04
67249;SHT31;54162;54.300;18.592;2022-07-29T02:21:10;12.59;97.10
67249;SHT31;54162;54.300;18.592;2022-07-29T02:23:37;12.62;97.06
67249;SHT31;54162;54.300;18.592;2022-07-29T02:26:04;12.56;97.02
67249;SHT31;54162;54.300;18.592;2022-07-29T02:28:32;12.52;97.13
67249;SHT31;54162;54.300;18.592;2022-07-29T02:31:00;12.46;97.13
67249;SHT31;54162;54.300;18.592;2022-07-29T02:33:27;12.56;97.04
67249;SHT31;54162;54.300;18.592;2022-07-29T02:35:54;12.46;97.15
67249;SHT31;54162;54.300;18.592;2022-07-29T02:38:21;12.48;97.20
67249;SHT31;54162;54.300;18.592;2022-07-29T02:41:10;12.51;97.26
67249;SHT31;54162;54.300;18.592;2022-07-29T02:43:37;12.46;97.33
67249;SHT31;54162;54.300;18.592;2022-07-29T02:46:05;12.48;97.24
67249;SHT31;54162;54.300;18.592;2022-07-29T02:48:43;12.48;97.28
67249;SHT31;54162;54.300;18.592;2022-07-29T02:51:19;12.55;97.35
67249;SHT31;54162;54.300;18.592;2022-07-29T02:53:49;12.52;97.44
67249;SHT31;54162;54.300;18.592;2022-07-29T02:56:17;12.58;97.36
67249;SHT31;54162;54.300;18.592;2022-07-29T02:58:53;12.55;97.37
67249;SHT31;54162;54.300;18.592;2022-07-29T03:01:22;12.61;97.51
67249;SHT31;54162;54.300;18.592;2022-07-29T03:03:50;12.73;97.55
67249;SHT31;54162;54.300;18.592;2022-07-29T03:06:17;12.86;97.57
67249;SHT31;54162;54.300;18.592;2022-07-29T03:08:45;12.93;97.54
67249;SHT31;54162;54.300;18.592;2022-07-29T03:11:11;13.03;97.48
67249;SHT31;54162;54.300;18.592;2022-07-29T03:13:38;13.10;97.50
67249;SHT31;54162;54.300;18.592;2022-07-29T03:16:04;13.19;97.38
67249;SHT31;54162;54.300;18.592;2022-07-29T03:18:31;13.24;97.41
67249;SHT31;54162;54.300;18.592;2022-07-29T03:20:57;13.33;97.41
67249;SHT31;54162;54.300;18.592;2022-07-29T03:23:23;13.37;97.20
67249;SHT31;54162;54.300;18.592;2022-07-29T03:25:51;13.43;97.04
67249;SHT31;54162;54.300;18.592;2022-07-29T03:28:17;13.55;96.92
67249;SHT31;54162;54.300;18.592;2022-07-29T03:30:43;13.55;96.78
67249;SHT31;54162;54.300;18.592;2022-07-29T03:33:08;13.55;96.53
67249;SHT31;54162;54.300;18.592;2022-07-29T03:35:33;13.60;96.51
67249;SHT31;54162;54.300;18.592;2022-07-29T03:37:59;13.60;96.58
67249;SHT31;54162;54.300;18.592;2022-07-29T03:40:35;13.74;96.31
67249;SHT31;54162;54.300;18.592;2022-07-29T03:43:03;13.85;96.45
67249;SHT31;54162;54.300;18.592;2022-07-29T03:45:31;13.92;96.32
67249;SHT31;54162;54.300;18.592;2022-07-29T03:48:02;13.92;95.73
67249;SHT31;54162;54.300;18.592;2022-07-29T03:50:30;14.04;95.86
67249;SHT31;54162;54.300;18.592;2022-07-29T03:52:57;14.06;95.43
67249;SHT31;54162;54.300;18.592;2022-07-29T03:55:23;14.12;95.06
67249;SHT31;54162;54.300;18.592;2022-07-29T03:57:49;14.36;95.44
67249;SHT31;54162;54.300;18.592;2022-07-29T04:00:15;14.54;95.11
67249;SHT31;54162;54.300;18.592;2022-07-29T04:02:41;14.80;94.95
67249;SHT31;54162;54.300;18.592;2022-07-29T04:05:13;15.79;93.47
67249;SHT31;54162;54.300;18.592;2022-07-29T04:07:39;15.98;92.80
67249;SHT31;54162;54.300;18.592;2022-07-29T04:10:04;15.98;92.21
67249;SHT31;54162;54.300;18.592;2022-07-29T04:12:30;16.15;91.82
67249;SHT31;54162;54.300;18.592;2022-07-29T04:14:56;16.42;90.55
67249;SHT31;54162;54.300;18.592;2022-07-29T04:17:21;17.11;89.68
67249;SHT31;54162;54.300;18.592;2022-07-29T04:19:46;17.76;86.69
67249;SHT31;54162;54.300;18.592;2022-07-29T04:22:12;17.75;85.77
67249;SHT31;54162;54.300;18.592;2022-07-29T04:24:37;17.04;85.81
67249;SHT31;54162;54.300;18.592;2022-07-29T04:27:03;17.21;84.88
67249;SHT31;54162;54.300;18.592;2022-07-29T04:29:28;17.31;85.20
67249;SHT31;54162;54.300;18.592;2022-07-29T04:31:54;17.68;83.52
67249;SHT31;54162;54.300;18.592;2022-07-29T04:34:19;17.45;84.61
67249;SHT31;54162;54.300;18.592;2022-07-29T04:36:45;17.31;85.31
67249;SHT31;54162;54.300;18.592;2022-07-29T04:39:10;17.51;83.95
67249;SHT31;54162;54.300;18.592;2022-07-29T04:41:36;17.36;83.62
67249;SHT31;54162;54.300;18.592;2022-07-29T04:44:02;17.49;84.29
67249;SHT31;54162;54.300;18.592;2022-07-29T04:46:30;18.27;81.79
67249;SHT31;54162;54.300;18.592;2022-07-29T04:48:55;18.67;80.81
67249;SHT31;54162;54.300;18.592;2022-07-29T04:51:21;18.79;78.84
67249;SHT31;54162;54.300;18.592;2022-07-29T04:53:46;20.30;76.74
67249;SHT31;54162;54.300;18.592;2022-07-29T04:56:13;20.77;72.27
67249;SHT31;54162;54.300;18.592;2022-07-29T04:58:38;21.11;71.52
67249;SHT31;54162;54.300;18.592;2022-07-29T05:01:04;21.08;71.73
67249;SHT31;54162;54.300;18.592;2022-07-29T05:03:29;20.57;72.31
67249;SHT31;54162;54.300;18.592;2022-07-29T05:05:55;21.02;70.93
67249;SHT31;54162;54.300;18.592;2022-07-29T05:08:20;22.07;69.01
67249;SHT31;54162;54.300;18.592;2022-07-29T05:10:46;22.34;67.99
67249;SHT31;54162;54.300;18.592;2022-07-29T05:13:11;22.37;67.74
67249;SHT31;54162;54.300;18.592;2022-07-29T05:15:37;23.06;66.32
67249;SHT31;54162;54.300;18.592;2022-07-29T05:18:03;22.73;65.91
67249;SHT31;54162;54.300;18.592;2022-07-29T05:20:29;23.17;64.71
67249;SHT31;54162;54.300;18.592;2022-07-29T05:22:59;22.98;65.03
67249;SHT31;54162;54.300;18.592;2022-07-29T05:25:25;23.46;64.29
67249;SHT31;54162;54.300;18.592;2022-07-29T05:27:52;22.82;62.87
67249;SHT31;54162;54.300;18.592;2022-07-29T05:30:17;22.89;65.24
67249;SHT31;54162;54.300;18.592;2022-07-29T05:32:43;22.85;64.57
67249;SHT31;54162;54.300;18.592;2022-07-29T05:35:09;23.33;63.48
67249;SHT31;54162;54.300;18.592;2022-07-29T05:37:34;23.78;62.39
67249;SHT31;54162;54.300;18.592;2022-07-29T05:40:00;24.61;60.62
67249;SHT31;54162;54.300;18.592;2022-07-29T05:42:26;24.59;59.05
67249;SHT31;54162;54.300;18.592;2022-07-29T05:44:52;25.05;58.78
67249;SHT31;54162;54.300;18.592;2022-07-29T05:47:18;25.22;57.31
67249;SHT31;54162;54.300;18.592;2022-07-29T05:49:43;24.80;56.36
67249;SHT31;54162;54.300;18.592;2022-07-29T05:52:09;24.63;56.65
67249;SHT31;54162;54.300;18.592;2022-07-29T05:54:35;24.56;56.80
67249;SHT31;54162;54.300;18.592;2022-07-29T05:57:01;25.21;54.49
67249;SHT31;54162;54.300;18.592;2022-07-29T05:59:27;23.19;59.54
67249;SHT31;54162;54.300;18.592;2022-07-29T06:01:52;24.23;56.52
67249;SHT31;54162;54.300;18.592;2022-07-29T06:04:18;24.41;56.77
67249;SHT31;54162;54.300;18.592;2022-07-29T06:06:44;24.52;55.58
67249;SHT31;54162;54.300;18.592;2022-07-29T06:09:09;23.92;58.39
67249;SHT31;54162;54.300;18.592;2022-07-29T06:11:35;23.43;57.75
67249;SHT31;54162;54.300;18.592;2022-07-29T06:14:00;23.85;57.54
67249;SHT31;54162;54.300;18.592;2022-07-29T06:16:28;25.96;54.50
67249;SHT31;54162;54.300;18.592;2022-07-29T06:18:53;26.56;51.20
67249;SHT31;54162;54.300;18.592;2022-07-29T06:21:19;25.83;53.52
67249;SHT31;54162;54.300;18.592;2022-07-29T06:23:44;26.24;51.63
67249;SHT31;54162;54.300;18.592;2022-07-29T06:26:10;25.38;53.39
67249;SHT31;54162;54.300;18.592;2022-07-29T06:28:36;24.80;55.00
67249;SHT31;54162;54.300;18.592;2022-07-29T06:31:01;25.43;55.27
67249;SHT31;54162;54.300;18.592;2022-07-29T06:33:27;24.41;56.13
67249;SHT31;54162;54.300;18.592;2022-07-29T06:35:52;24.68;54.82
67249;SHT31;54162;54.300;18.592;2022-07-29T06:38:18;25.23;53.55
67249;SHT31;54162;54.300;18.592;2022-07-29T06:40:44;23.69;55.51
67249;SHT31;54162;54.300;18.592;2022-07-29T06:43:30;24.02;56.15
67249;SHT31;54162;54.300;18.592;2022-07-29T06:45:58;23.75;57.56
67249;SHT31;54162;54.300;18.592;2022-07-29T06:48:23;24.90;54.37
67249;SHT31;54162;54.300;18.592;2022-07-29T06:50:50;24.56;54.12
67249;SHT31;54162;54.300;18.592;2022-07-29T06:53:16;23.89;54.42
67249;SHT31;54162;54.300;18.592;2022-07-29T06:55:41;24.50;53.90
67249;SHT31;54162;54.300;18.592;2022-07-29T06:58:07;25.81;52.05
67249;SHT31;54162;54.300;18.592;2022-07-29T07:00:34;24.52;54.62
67249;SHT31;54162;54.300;18.592;2022-07-29T07:03:00;25.86;52.86
67249;SHT31;54162;54.300;18.592;2022-07-29T07:05:26;24.44;54.74
67249;SHT31;54162;54.300;18.592;2022-07-29T07:07:51;26.04;52.61
67249;SHT31;54162;54.300;18.592;2022-07-29T07:10:17;27.11;49.75
67249;SHT31;54162;54.300;18.592;2022-07-29T07:12:42;25.08;53.66
67249;SHT31;54162;54.300;18.592;2022-07-29T07:15:08;24.36;56.47
67249;SHT31;54162;54.300;18.592;2022-07-29T07:17:34;25.79;53.24
67249;SHT31;54162;54.300;18.592;2022-07-29T07:19:59;25.01;54.65
67249;SHT31;54162;54.300;18.592;2022-07-29T07:22:25;24.94;54.45
67249;SHT31;54162;54.300;18.592;2022-07-29T07:24:50;22.85;60.37
67249;SHT31;54162;54.300;18.592;2022-07-29T07:27:16;24.68;55.10
67249;SHT31;54162;54.300;18.592;2022-07-29T07:29:41;24.13;56.21
67249;SHT31;54162;54.300;18.592;2022-07-29T07:32:07;23.98;57.09
67249;SHT31;54162;54.300;18.592;2022-07-29T07:34:33;23.81;56.19
67249;SHT31;54162;54.300;18.592;2022-07-29T07:36:59;24.91;55.09
67249;SHT31;54162;54.300;18.592;2022-07-29T07:39:24;25.87;51.17
67249;SHT31;54162;54.300;18.592;2022-07-29T07:41:52;25.10;54.72
67249;SHT31;54162;54.300;18.592;2022-07-29T07:44:17;24.71;54.04
67249;SHT31;54162;54.300;18.592;2022-07-29T07:46:43;25.14;53.24
67249;SHT31;54162;54.300;18.592;2022-07-29T07:49:10;23.69;56.29
67249;SHT31;54162;54.300;18.592;2022-07-29T07:51:36;23.71;56.95
67249;SHT31;54162;54.300;18.592;2022-07-29T07:54:01;23.92;56.59
67249;SHT31;54162;54.300;18.592;2022-07-29T07:56:27;24.64;55.27
67249;SHT31;54162;54.300;18.592;2022-07-29T07:58:52;23.99;55.29
67249;SHT31;54162;54.300;18.592;2022-07-29T08:01:18;23.47;56.77
67249;SHT31;54162;54.300;18.592;2022-07-29T08:03:46;22.88;59.92
67249;SHT31;54162;54.300;18.592;2022-07-29T08:06:11;23.19;57.33
67249;SHT31;54162;54.300;18.592;2022-07-29T08:08:37;25.01;54.56
67249;SHT31;54162;54.300;18.592;2022-07-29T08:11:02;25.70;54.01
67249;SHT31;54162;54.300;18.592;2022-07-29T08:13:29;26.20;52.58
67249;SHT31;54162;54.300;18.592;2022-07-29T08:15:56;27.11;48.67
67249;SHT31;54162;54.300;18.592;2022-07-29T08:18:43;26.59;47.60
67249;SHT31;54162;54.300;18.592;2022-07-29T08:21:09;25.98;51.27
67249;SHT31;54162;54.300;18.592;2022-07-29T08:23:35;25.65;50.49
67249;SHT31;54162;54.300;18.592;2022-07-29T08:26:20;23.43;55.63
67249;SHT31;54162;54.300;18.592;2022-07-29T08:28:47;24.64;53.83
67249;SHT31;54162;54.300;18.592;2022-07-29T08:31:16;25.79;50.24
67249;SHT31;54162;54.300;18.592;2022-07-29T08:33:42;26.51;47.78
67249;SHT31;54162;54.300;18.592;2022-07-29T08:36:08;26.07;49.70
67249;SHT31;54162;54.300;18.592;2022-07-29T08:38:33;25.33;49.98
67249;SHT31;54162;54.300;18.592;2022-07-29T08:41:02;25.33;49.42
67249;SHT31;54162;54.300;18.592;2022-07-29T08:43:28;25.93;49.40
67249;SHT31;54162;54.300;18.592;2022-07-29T08:45:54;26.80;46.82
67249;SHT31;54162;54.300;18.592;2022-07-29T08:48:22;28.88;45.15
67249;SHT31;54162;54.300;18.592;2022-07-29T08:50:52;30.10;41.12
67249;SHT31;54162;54.300;18.592;2022-07-29T08:53:18;31.83;39.76
67249;SHT31;54162;54.300;18.592;2022-07-29T08:55:46;27.81;44.42
67249;SHT31;54162;54.300;18.592;2022-07-29T08:58:13;27.72;44.75
67249;SHT31;54162;54.300;18.592;2022-07-29T09:00:50;24.99;48.95
67249;SHT31;54162;54.300;18.592;2022-07-29T09:03:18;23.43;53.11
67249;SHT31;54162;54.300;18.592;2022-07-29T09:05:48;25.01;50.81
67249;SHT31;54162;54.300;18.592;2022-07-29T09:08:14;25.32;49.77
67249;SHT31;54162;54.300;18.592;2022-07-29T09:10:41;26.39;47.60
67249;SHT31;54162;54.300;18.592;2022-07-29T09:13:06;25.26;49.24
67249;SHT31;54162;54.300;18.592;2022-07-29T09:15:32;25.79;48.85
67249;SHT31;54162;54.300;18.592;2022-07-29T09:17:58;26.47;46.53
67249;SHT31;54162;54.300;18.592;2022-07-29T09:20:25;28.84;44.86
67249;SHT31;54162;54.300;18.592;2022-07-29T09:22:52;28.49;44.61
67249;SHT31;54162;54.300;18.592;2022-07-29T09:25:37;27.92;44.74
67249;SHT31;54162;54.300;18.592;2022-07-29T09:28:09;27.16;45.33
67249;SHT31;54162;54.300;18.592;2022-07-29T09:30:38;26.62;45.37
67249;SHT31;54162;54.300;18.592;2022-07-29T09:33:14;27.52;44.64
67249;SHT31;54162;54.300;18.592;2022-07-29T09:35:40;27.82;44.06
67249;SHT31;54162;54.300;18.592;2022-07-29T09:38:15;29.19;42.46
67249;SHT31;54162;54.300;18.592;2022-07-29T09:40:40;28.21;42.96
67249;SHT31;54162;54.300;18.592;2022-07-29T09:43:14;26.86;45.56
67249;SHT31;54162;54.300;18.592;2022-07-29T09:45:39;27.30;43.63
67249;SHT31;54162;54.300;18.592;2022-07-29T09:48:22;23.67;53.38
67249;SHT31;54162;54.300;18.592;2022-07-29T09:50:48;23.41;56.75
67249;SHT31;54162;54.300;18.592;2022-07-29T09:53:34;22.91;57.96
67249;SHT31;54162;54.300;18.592;2022-07-29T09:56:01;22.54;58.02
67249;SHT31;54162;54.300;18.592;2022-07-29T09:58:26;22.21;59.72
67249;SHT31;54162;54.300;18.592;2022-07-29T10:00:53;22.73;54.79
67249;SHT31;54162;54.300;18.592;2022-07-29T10:03:20;23.62;54.91
67249;SHT31;54162;54.300;18.592;2022-07-29T10:05:46;23.99;54.54
67249;SHT31;54162;54.300;18.592;2022-07-29T10:08:13;24.02;54.57
67249;SHT31;54162;54.300;18.592;2022-07-29T10:10:41;24.04;54.50
67249;SHT31;54162;54.300;18.592;2022-07-29T10:13:08;23.99;55.93
67249;SHT31;54162;54.300;18.592;2022-07-29T10:15:36;24.37;54.42
67249;SHT31;54162;54.300;18.592;2022-07-29T10:18:04;22.52;57.43
67249;SHT31;54162;54.300;18.592;2022-07-29T10:20:30;23.07;58.79
67249;SHT31;54162;54.300;18.592;2022-07-29T10:22:56;23.24;56.49
67249;SHT31;54162;54.300;18.592;2022-07-29T10:25:22;22.65;56.19
67249;SHT31;54162;54.300;18.592;2022-07-29T10:27:49;23.14;56.14
67249;SHT31;54162;54.300;18.592;2022-07-29T10:30:17;22.55;57.00
67249;SHT31;54162;54.300;18.592;2022-07-29T10:33:15;22.71;57.54
67249;SHT31;54162;54.300;18.592;2022-07-29T10:41:21;23.33;54.40
67249;SHT31;54162;54.300;18.592;2022-07-29T10:44:00;22.13;56.37
67249;SHT31;54162;54.300;18.592;2022-07-29T10:46:27;23.09;52.93
67249;SHT31;54162;54.300;18.592;2022-07-29T11:05:08;21.96;51.39
67249;SHT31;54162;54.300;18.592;2022-07-29T11:07:35;22.38;52.20
67249;SHT31;54162;54.300;18.592;2022-07-29T11:15:06;22.16;50.42
67249;SHT31;54162;54.300;18.592;2022-07-29T11:22:59;22.33;50.25
67249;SHT31;54162;54.300;18.592;2022-07-29T11:25:25;21.97;50.15
67249;SHT31;54162;54.300;18.592;2022-07-29T11:27:52;22.14;49.33
67249;SHT31;54162;54.300;18.592;2022-07-29T11:30:19;22.27;50.94
67249;SHT31;54162;54.300;18.592;2022-07-29T11:32:45;22.11;50.52
67249;SHT31;54162;54.300;18.592;2022-07-29T11:35:20;22.31;50.27
67249;SHT31;54162;54.300;18.592;2022-07-29T11:41:24;22.44;49.42
67249;SHT31;54162;54.300;18.592;2022-07-29T11:43:57;22.04;50.26
67249;SHT31;54162;54.300;18.592;2022-07-29T11:46:55;22.58;48.88
67249;SHT31;54162;54.300;18.592;2022-07-29T11:49:26;22.41;49.82
67249;SHT31;54162;54.300;18.592;2022-07-29T11:51:53;22.64;50.01
67249;SHT31;54162;54.300;18.592;2022-07-29T11:54:24;23.03;48.24
67249;SHT31;54162;54.300;18.592;2022-07-29T11:56:51;22.62;48.53
67249;SHT31;54162;54.300;18.592;2022-07-29T11:59:17;22.49;48.53
67249;SHT31;54162;54.300;18.592;2022-07-29T12:01:58;22.92;48.93
67249;SHT31;54162;54.300;18.592;2022-07-29T12:04:24;22.45;48.57
67249;SHT31;54162;54.300;18.592;2022-07-29T12:06:50;22.59;49.17
67249;SHT31;54162;54.300;18.592;2022-07-29T12:09:17;22.61;47.43
67249;SHT31;54162;54.300;18.592;2022-07-29T12:11:43;22.71;48.06
67249;SHT31;54162;54.300;18.592;2022-07-29T12:14:08;22.31;48.54
67249;SHT31;54162;54.300;18.592;2022-07-29T12:16:35;22.49;49.97
67249;SHT31;54162;54.300;18.592;2022-07-29T12:19:03;22.68;49.05
67249;SHT31;54162;54.300;18.592;2022-07-29T12:21:50;22.83;48.98
67249;SHT31;54162;54.300;18.592;2022-07-29T12:24:17;22.43;49.39
67249;SHT31;54162;54.300;18.592;2022-07-29T12:29:19;22.04;51.28
67249;SHT31;54162;54.300;18.592;2022-07-29T12:31:45;22.04;51.01
67249;SHT31;54162;54.300;18.592;2022-07-29T12:34:15;21.55;51.42
67249;SHT31;54162;54.300;18.592;2022-07-29T12:36:42;22.21;51.31
67249;SHT31;54162;54.300;18.592;2022-07-29T12:39:08;21.87;51.35
67249;SHT31;54162;54.300;18.592;2022-07-29T12:41:34;21.67;52.08
67249;SHT31;54162;54.300;18.592;2022-07-29T12:44:00;21.73;51.46
67249;SHT31;54162;54.300;18.592;2022-07-29T12:46:26;22.03;52.16
67249;SHT31;54162;54.300;18.592;2022-07-29T12:48:53;21.82;52.31
67249;SHT31;54162;54.300;18.592;2022-07-29T12:51:32;22.35;53.02
67249;SHT31;54162;54.300;18.592;2022-07-29T12:54:09;22.28;52.84
67249;SHT31;54162;54.300;18.592;2022-07-29T12:56:36;21.77;52.85
67249;SHT31;54162;54.300;18.592;2022-07-29T12:59:15;21.43;52.51
67249;SHT31;54162;54.300;18.592;2022-07-29T13:01:41;21.63;54.06
67249;SHT31;54162;54.300;18.592;2022-07-29T13:04:06;21.69;54.36
67249;SHT31;54162;54.300;18.592;2022-07-29T13:06:42;21.63;54.45
67249;SHT31;54162;54.300;18.592;2022-07-29T13:11:47;21.11;54.86
67249;SHT31;54162;54.300;18.592;2022-07-29T13:14:35;20.80;56.22
67249;SHT31;54162;54.300;18.592;2022-07-29T13:20:04;20.91;55.07
67249;SHT31;54162;54.300;18.592;2022-07-29T13:22:30;21.04;54.42
67249;SHT31;54162;54.300;18.592;2022-07-29T13:25:00;20.62;56.24
67249;SHT31;54162;54.300;18.592;2022-07-29T13:27:31;20.66;57.23
67249;SHT31;54162;54.300;18.592;2022-07-29T13:29:59;20.47;57.76
67249;SHT31;54162;54.300;18.592;2022-07-29T13:32:26;20.49;57.13
67249;SHT31;54162;54.300;18.592;2022-07-29T13:34:52;20.59;58.23
67249;SHT31;54162;54.300;18.592;2022-07-29T13:37:18;20.70;57.51
67249;SHT31;54162;54.300;18.592;2022-07-29T13:39:44;20.63;57.56
67249;SHT31;54162;54.300;18.592;2022-07-29T13:42:10;20.16;59.00
67249;SHT31;54162;54.300;18.592;2022-07-29T13:44:38;20.19;57.32
67249;SHT31;54162;54.300;18.592;2022-07-29T13:47:05;20.06;59.87
67249;SHT31;54162;54.300;18.592;2022-07-29T13:49:30;20.04;60.91
67249;SHT31;54162;54.300;18.592;2022-07-29T13:51:56;19.67;63.06
67249;SHT31;54162;54.300;18.592;2022-07-29T13:54:22;19.89;63.63
67249;SHT31;54162;54.300;18.592;2022-07-29T13:56:47;19.92;63.99
67249;SHT31;54162;54.300;18.592;2022-07-29T13:59:13;19.73;63.98
67249;SHT31;54162;54.300;18.592;2022-07-29T14:01:39;19.74;65.09
67249;SHT31;54162;54.300;18.592;2022-07-29T14:04:07;19.64;63.74
67249;SHT31;54162;54.300;18.592;2022-07-29T14:06:33;19.71;62.96
67249;SHT31;54162;54.300;18.592;2022-07-29T14:08:59;20.15;63.78
67249;SHT31;54162;54.300;18.592;2022-07-29T14:11:24;20.04;64.41
67249;SHT31;54162;54.300;18.592;2022-07-29T14:13:50;20.16;65.12
67249;SHT31;54162;54.300;18.592;2022-07-29T14:16:15;20.60;62.32
67249;SHT31;54162;54.300;18.592;2022-07-29T14:18:41;20.69;62.41
67249;SHT31;54162;54.300;18.592;2022-07-29T14:21:07;20.69;62.43
67249;SHT31;54162;54.300;18.592;2022-07-29T14:23:33;21.02;62.33
67249;SHT31;54162;54.300;18.592;2022-07-29T14:25:59;21.21;61.99
67249;SHT31;54162;54.300;18.592;2022-07-29T14:28:24;20.42;61.86
67249;SHT31;54162;54.300;18.592;2022-07-29T14:30:50;20.37;61.92
67249;SHT31;54162;54.300;18.592;2022-07-29T14:33:15;20.06;59.66
67249;SHT31;54162;54.300;18.592;2022-07-29T14:35:41;19.81;59.50
67249;SHT31;54162;54.300;18.592;2022-07-29T14:38:06;19.75;58.75
67249;SHT31;54162;54.300;18.592;2022-07-29T14:40:32;19.89;61.85
67249;SHT31;54162;54.300;18.592;2022-07-29T14:42:57;19.79;62.48
67249;SHT31;54162;54.300;18.592;2022-07-29T14:45:23;19.98;62.29
67249;SHT31;54162;54.300;18.592;2022-07-29T14:47:48;19.79;60.98
67249;SHT31;54162;54.300;18.592;2022-07-29T14:50:16;19.81;63.74
67249;SHT31;54162;54.300;18.592;2022-07-29T14:52:41;20.09;63.35
67249;SHT31;54162;54.300;18.592;2022-07-29T14:55:07;19.96;62.80
67249;SHT31;54162;54.300;18.592;2022-07-29T14:57:33;19.89;63.81
67249;SHT31;54162;54.300;18.592;2022-07-29T14:59:58;20.06;62.78
67249;SHT31;54162;54.300;18.592;2022-07-29T15:02:24;20.53;59.56
67249;SHT31;54162;54.300;18.592;2022-07-29T15:04:49;20.57;61.27
67249;SHT31;54162;54.300;18.592;2022-07-29T15:07:15;20.09;61.33
67249;SHT31;54162;54.300;18.592;2022-07-29T15:09:42;20.23;60.54
67249;SHT31;54162;54.300;18.592;2022-07-29T15:12:07;20.23;61.51
67249;SHT31;54162;54.300;18.592;2022-07-29T15:14:33;20.02;62.75
67249;SHT31;54162;54.300;18.592;2022-07-29T15:16:59;20.09;61.69
67249;SHT31;54162;54.300;18.592;2022-07-29T15:19:24;19.87;62.14
67249;SHT31;54162;54.300;18.592;2022-07-29T15:21:50;19.53;62.42
67249;SHT31;54162;54.300;18.592;2022-07-29T15:24:16;19.49;62.87
67249;SHT31;54162;54.300;18.592;2022-07-29T15:26:42;19.38;63.23
67249;SHT31;54162;54.300;18.592;2022-07-29T15:29:07;19.22;63.72
67249;SHT31;54162;54.300;18.592;2022-07-29T15:31:33;19.24;63.95
67249;SHT31;54162;54.300;18.592;2022-07-29T15:33:58;19.20;63.44
67249;SHT31;54162;54.300;18.592;2022-07-29T15:36:24;19.29;63.90
67249;SHT31;54162;54.300;18.592;2022-07-29T15:38:52;19.09;64.35
67249;SHT31;54162;54.300;18.592;2022-07-29T15:41:18;19.13;63.96
67249;SHT31;54162;54.300;18.592;2022-07-29T15:43:45;19.09;63.44
67249;SHT31;54162;54.300;18.592;2022-07-29T15:46:13;19.15;63.59
67249;SHT31;54162;54.300;18.592;2022-07-29T15:48:58;19.02;64.84
67249;SHT31;54162;54.300;18.592;2022-07-29T15:51:23;19.02;65.42
67249;SHT31;54162;54.300;18.592;2022-07-29T15:53:49;19.08;65.37
67249;SHT31;54162;54.300;18.592;2022-07-29T15:56:15;19.31;64.86
67249;SHT31;54162;54.300;18.592;2022-07-29T15:58:40;19.26;62.79
67249;SHT31;54162;54.300;18.592;2022-07-29T16:01:06;19.60;62.46
67249;SHT31;54162;54.300;18.592;2022-07-29T16:03:31;19.57;63.47
67249;SHT31;54162;54.300;18.592;2022-07-29T16:05:57;19.51;63.32
67249;SHT31;54162;54.300;18.592;2022-07-29T16:08:23;19.57;61.64